Airfield :
LOGIN :

Register | Disclaimer

   EN    FR    IT 

 










Legend :    VFR   Marginal VFR   IFR   Intensive IFR   Very Intensive IFR
Visi :
Ceiling :
>= 8 km
>= 3000ft
5 to 8 km
1000 to 3000 ft
1500m to 5 km
500 to 1000 ft
800 to 1500m
200 to 500 ft
< 800m
< 200 ft
Symbols :   Thunderstorms  Fog  Heavy snow  Heavy precipitations  Wind > 20 kt
SIGMETs :     Misc.  Thunderstorms  Icing  Turbulence  Mountain Waves  Volcanic Ashes







- Airport Elevation : 1036 ft
- IATA code : ERF


EDDE - Erfurt

CURRENT METAR :
  • 160820Z 25007KT 7000 FEW010 BKN036 00/M00 Q1005 R88/490194 NOSIG

EXPIRED METARs :
  • 160750Z 26008KT 4500 BR FEW003 BKN035 00/M00 Q1005 R88/190095 BECMG 5000
  • 160720Z 26010KT 4000 BR FEW003 SCT036 BKN050 00/M00 Q1004 R88/190095 TEMPO 2500
  • 160650Z 26009KT 1600 BR SCT001 BKN050 M00/M00 Q1004 R88/190095 TEMPO 1400
  • 160620Z 25008KT 2300 BR FEW002 BKN046 M01/M01 Q1003 R88/190095 TEMPO 0700 FZFG BKN001
  • 160550Z 22007KT 3000 BR FEW002 BKN046 M01/M01 Q1003 R88/190095 TEMPO 2500

TAF TAF EDDE
Valid from the 16 at 06:00 until the 17 at 06:00 UTC


160500Z 1606/1706 24005KT 6000 BKN030
TEMPO 1606/1608 0600 FZFG OVC001
PROB30
TEMPO 1608/1612 SHRASN BKN012TCU
BECMG 1609/1612 27010KT
TEMPO 1615/1706 2500 SHSN BKN008TCU
No reported NOTAMs for that airfield.



MET'MAP, your aeronautical weather chart ! - Copyright ORBIFLY December 2007 - Disclaimer

ORBIFLY MET'MAP TEAM :

Programming & Development : Alexandra Zaïnal
Concept & Development : Baudouin d'Aumeries
Co-Development & Prog : Marc-Olivier Méhu
Technical & hardware support : Manuel Goepfert

Contact : metmap@orbifly.com




SOURCES & CREDITS :

   NOAA